Rockwall's Hourly Summary for Wednesday, July 11, 2018
Hour Temp
(f)
RH
(%)
Solar Rad.
(MJ/m2)
Rainfall
(in)
Wind
(mph)
7/11/2018 12:00 AM 79 74 0 0 0.03
7/11/2018 1:00 AM 78 78 0 0 0
7/11/2018 2:00 AM 77 81 0 0 0.01
7/11/2018 3:00 AM 76 83 0 0 0.02
7/11/2018 4:00 AM 76 81 0 0 0.18
7/11/2018 5:00 AM 76 80 0 0 0.03
7/11/2018 6:00 AM 75 84 0 0 0.08
7/11/2018 7:00 AM 76 83 0.03 0 0
7/11/2018 8:00 AM 77 83 0.19 0 1.21
7/11/2018 9:00 AM 78 78 0.56 0 2.9
7/11/2018 10:00 AM 82 67 1.48 0 2.84
7/11/2018 11:00 AM 87 61 2.21 0 1.49
7/11/2018 12:00 PM 88 55 2.48 0 2.33
7/11/2018 1:00 PM 91 46 2.83 0 2.29
7/11/2018 2:00 PM 94 40 3.2 0 1.81
7/11/2018 3:00 PM 96 32 3.35 0 2.52
7/11/2018 4:00 PM 96 37 2.8 0 3.3
7/11/2018 5:00 PM 92 49 1.31 0 3.95
7/11/2018 6:00 PM 90 49 0.34 0 3.39
7/11/2018 7:00 PM 86 59 0.3 0 4.39
7/11/2018 8:00 PM 84 63 0.15 0 3.87
7/11/2018 9:00 PM 83 63 0.02 0 3.64
7/11/2018 10:00 PM 82 63 0 0 4.24
7/11/2018 11:00 PM 80 68 0 0 3.75
Data Summary 83 64 21.25 0.00 2.01